Time;durP1;ratioP1;P1;durP2;ratioP2;P2;SDS_P1;SDS_P2;PMS_P1;PMS_P2;Temp;Humidity;BMP_temperature;BMP_pressure;BME280_temperature;BME280_humidity;BME280_pressure;Samples;Min_cycle;Max_cycle;Signal;HPM_P1;HPM_P2
2023/04/21 00:01:39;;;;;;;19.07;17.17;;;;;;;;;;5053301;28;20664;-75
2023/04/21 00:04:07;;;;;;;19.40;16.77;;;;;;;;;;5054553;28;20233;-75
2023/04/21 00:06:33;;;;;;;19.00;17.20;;;;;;;;;;5054370;28;20296;-75
2023/04/21 00:08:59;;;;;;;18.17;16.40;;;;;;;;;;5054581;28;20672;-75
2023/04/21 00:11:25;;;;;;;18.23;16.43;;;;;;;;;;5054606;28;20201;-75
2023/04/21 00:13:52;;;;;;;17.27;15.67;;;;;;;;;;5054919;28;20243;-75
2023/04/21 00:16:18;;;;;;;18.33;16.43;;;;;;;;;;5054420;28;20229;-75
2023/04/21 00:18:44;;;;;;;17.63;15.93;;;;;;;;;;5054528;28;20266;-75
2023/04/21 00:21:10;;;;;;;17.10;15.43;;;;;;;;;;5054467;28;20205;-75
2023/04/21 00:23:37;;;;;;;17.93;16.13;;;;;;;;;;5054308;28;20221;-75
2023/04/21 00:26:03;;;;;;;18.10;16.30;;;;;;;;;;5054355;28;20208;-75
2023/04/21 00:28:29;;;;;;;17.83;16.17;;;;;;;;;;5053924;28;20259;-75
2023/04/21 00:30:55;;;;;;;18.23;16.43;;;;;;;;;;5054130;28;20205;-75
2023/04/21 00:33:22;;;;;;;18.70;16.80;;;;;;;;;;5054166;28;20228;-75
2023/04/21 00:35:48;;;;;;;18.47;16.60;;;;;;;;;;5054387;28;20233;-75
2023/04/21 00:38:14;;;;;;;19.70;17.60;;;;;;;;;;5054114;28;20201;-75
2023/04/21 00:40:41;;;;;;;19.97;17.60;;;;;;;;;;5054911;28;20209;-75
2023/04/21 00:43:07;;;;;;;19.37;17.37;;;;;;;;;;5053959;28;20230;-75
2023/04/21 00:45:33;;;;;;;20.07;17.67;;;;;;;;;;5053948;28;20657;-75
2023/04/21 00:47:59;;;;;;;19.10;17.20;;;;;;;;;;5054017;28;20206;-75
2023/04/21 00:50:26;;;;;;;19.10;17.13;;;;;;;;;;5053952;28;20228;-75
2023/04/21 00:52:52;;;;;;;19.73;17.83;;;;;;;;;;5053853;28;20232;-75
2023/04/21 00:55:18;;;;;;;19.03;17.13;;;;;;;;;;5054300;28;20221;-75
2023/04/21 00:57:45;;;;;;;19.20;16.70;;;;;;;;;;5054101;28;20219;-75
2023/04/21 01:00:12;;;;;;;18.13;16.10;;;;;;;;;;5053739;28;20572;-75
2023/04/21 01:02:39;;;;;;;18.67;16.80;;;;;;;;;;5053656;28;20225;-75
2023/04/21 01:05:07;;;;;;;18.03;15.93;;;;;;;;;;5053368;28;20668;-75
2023/04/21 01:07:34;;;;;;;18.37;16.57;;;;;;;;;;5053373;28;20667;-75
2023/04/21 01:10:00;;;;;;;18.47;16.57;;;;;;;;;;5053360;28;20212;-76
2023/04/21 01:12:26;;;;;;;18.20;16.37;;;;;;;;;;5053027;28;20221;-75
2023/04/21 01:14:53;;;;;;;18.70;16.80;;;;;;;;;;5053451;28;20205;-75
2023/04/21 01:17:19;;;;;;;18.30;16.50;;;;;;;;;;5054364;28;20209;-75
2023/04/21 01:19:46;;;;;;;17.10;15.40;;;;;;;;;;5053250;28;20209;-75
2023/04/21 01:22:14;;;;;;;18.17;16.27;;;;;;;;;;5053369;28;20205;-75
2023/04/21 01:24:44;;;;;;;18.83;17.03;;;;;;;;;;5053483;28;20205;-75
2023/04/21 01:27:11;;;;;;;18.60;16.70;;;;;;;;;;5053485;28;20204;-75
2023/04/21 01:29:38;;;;;;;18.13;16.33;;;;;;;;;;5053376;28;20611;-75
2023/04/21 01:32:06;;;;;;;18.37;16.57;;;;;;;;;;5053289;28;20207;-75
2023/04/21 01:34:32;;;;;;;18.30;16.50;;;;;;;;;;5052938;28;20205;-75
2023/04/21 01:36:58;;;;;;;18.50;16.67;;;;;;;;;;5053327;28;20588;-75
2023/04/21 01:39:24;;;;;;;18.10;16.23;;;;;;;;;;5053342;28;20201;-75
2023/04/21 01:41:51;;;;;;;18.50;16.70;;;;;;;;;;5053022;28;20211;-75
2023/04/21 01:44:17;;;;;;;17.63;16.00;;;;;;;;;;5053205;28;20724;-75
2023/04/21 01:46:43;;;;;;;17.90;16.00;;;;;;;;;;5053252;28;20224;-75
2023/04/21 01:49:09;;;;;;;18.57;16.67;;;;;;;;;;5053230;28;20212;-75
2023/04/21 01:51:36;;;;;;;17.77;15.97;;;;;;;;;;5053273;28;20211;-75
2023/04/21 01:54:02;;;;;;;17.20;15.50;;;;;;;;;;5053067;28;20232;-75
2023/04/21 01:56:28;;;;;;;17.87;16.07;;;;;;;;;;5052813;28;20727;-75
2023/04/21 01:58:54;;;;;;;18.00;16.27;;;;;;;;;;5053132;28;20572;-75
2023/04/21 02:01:21;;;;;;;18.67;16.70;;;;;;;;;;5053066;28;20212;-75
2023/04/21 02:03:47;;;;;;;16.47;14.83;;;;;;;;;;5053068;28;20225;-75
2023/04/21 02:06:13;;;;;;;17.13;15.47;;;;;;;;;;5053062;28;20205;-75
2023/04/21 02:08:40;;;;;;;17.60;15.73;;;;;;;;;;5052444;28;20684;-75
2023/04/21 02:11:06;;;;;;;16.40;14.60;;;;;;;;;;5052775;28;20673;-75
2023/04/21 02:13:32;;;;;;;16.43;14.83;;;;;;;;;;5052772;28;20708;-75
2023/04/21 02:15:59;;;;;;;17.47;15.67;;;;;;;;;;5052639;28;20236;-75
2023/04/21 02:18:28;;;;;;;17.20;15.33;;;;;;;;;;5052707;28;20209;-75
2023/04/21 02:20:54;;;;;;;18.00;16.13;;;;;;;;;;5052972;28;20564;-75
2023/04/21 02:23:21;;;;;;;18.27;16.43;;;;;;;;;;5052537;28;20225;-75
2023/04/21 02:25:47;;;;;;;17.87;16.07;;;;;;;;;;5055977;28;20280;-75
2023/04/21 02:28:13;;;;;;;19.00;17.13;;;;;;;;;;5056269;28;20219;-75
2023/04/21 02:30:39;;;;;;;17.73;15.93;;;;;;;;;;5056162;28;20578;-75
2023/04/21 02:33:06;;;;;;;17.73;15.73;;;;;;;;;;5056466;28;20225;-75
2023/04/21 02:35:33;;;;;;;15.83;14.23;;;;;;;;;;5056605;28;20225;-75
2023/04/21 02:38:05;;;;;;;16.23;14.63;;;;;;;;;;5056091;28;20672;-75
2023/04/21 02:40:31;;;;;;;17.07;15.37;;;;;;;;;;5056314;28;20638;-75
2023/04/21 02:42:57;;;;;;;17.17;15.37;;;;;;;;;;5056141;28;20229;-75
2023/04/21 02:45:24;;;;;;;16.20;14.50;;;;;;;;;;5056220;28;20251;-75
2023/04/21 02:47:50;;;;;;;16.40;14.70;;;;;;;;;;5056237;28;20278;-75
2023/04/21 02:50:16;;;;;;;16.00;14.40;;;;;;;;;;5056174;28;20213;-75
2023/04/21 02:52:43;;;;;;;16.47;14.87;;;;;;;;;;5056093;28;20236;-75
2023/04/21 02:55:09;;;;;;;15.87;14.27;;;;;;;;;;5056029;28;20209;-75
2023/04/21 02:57:35;;;;;;;15.67;14.07;;;;;;;;;;5055981;28;20205;-75
2023/04/21 03:00:03;;;;;;;15.33;13.73;;;;;;;;;;5055638;28;20215;-75
2023/04/21 03:02:29;;;;;;;16.00;14.37;;;;;;;;;;5055582;28;20742;-75
2023/04/21 03:04:56;;;;;;;17.23;14.43;;;;;;;;;;5055670;28;20255;-75
2023/04/21 03:07:22;;;;;;;15.13;13.63;;;;;;;;;;5055636;28;20206;-75
2023/04/21 03:09:48;;;;;;;14.53;13.10;;;;;;;;;;5055645;28;20209;-75
2023/04/21 03:12:15;;;;;;;15.53;14.03;;;;;;;;;;5055601;28;20300;-75
2023/04/21 03:14:41;;;;;;;16.40;14.40;;;;;;;;;;5055285;28;20255;-75
2023/04/21 03:17:07;;;;;;;15.60;14.03;;;;;;;;;;5055476;28;20225;-75
2023/04/21 03:19:34;;;;;;;16.60;14.33;;;;;;;;;;5055589;28;20205;-75
2023/04/21 03:22:00;;;;;;;15.07;13.53;;;;;;;;;;5055517;28;20205;-75
2023/04/21 03:24:26;;;;;;;17.17;15.37;;;;;;;;;;5055424;28;20228;-75
2023/04/21 03:26:53;;;;;;;17.70;15.80;;;;;;;;;;5055458;28;20570;-75
2023/04/21 03:29:19;;;;;;;17.57;15.17;;;;;;;;;;5055456;28;20209;-75
2023/04/21 03:31:45;;;;;;;18.53;16.67;;;;;;;;;;5055738;28;20243;-75
2023/04/21 03:34:11;;;;;;;18.00;16.13;;;;;;;;;;5054872;28;20229;-75
2023/04/21 03:36:37;;;;;;;15.97;14.30;;;;;;;;;;5054615;28;20225;-75
2023/04/21 03:39:04;;;;;;;17.53;15.73;;;;;;;;;;5054725;28;20209;-75
2023/04/21 03:41:30;;;;;;;18.30;16.40;;;;;;;;;;5055044;28;20201;-75
2023/04/21 03:43:56;;;;;;;20.00;16.60;;;;;;;;;;5054511;28;20227;-75
2023/04/21 03:46:23;;;;;;;18.23;16.43;;;;;;;;;;5054662;28;20202;-75
2023/04/21 03:48:49;;;;;;;17.40;15.63;;;;;;;;;;5054720;28;20335;-75
2023/04/21 03:51:15;;;;;;;17.00;15.27;;;;;;;;;;5054209;28;20738;-75
2023/04/21 03:53:42;;;;;;;17.40;15.60;;;;;;;;;;5054323;28;20232;-75
2023/04/21 03:56:08;;;;;;;18.13;16.23;;;;;;;;;;5054635;28;20233;-75
2023/04/21 03:58:34;;;;;;;19.30;17.23;;;;;;;;;;5054825;28;20230;-75
2023/04/21 04:01:01;;;;;;;18.40;16.57;;;;;;;;;;5054776;28;20205;-75
2023/04/21 04:03:27;;;;;;;19.07;17.07;;;;;;;;;;5054451;28;20583;-75
2023/04/21 04:05:53;;;;;;;18.70;16.87;;;;;;;;;;5054085;28;20680;-75
2023/04/21 04:08:19;;;;;;;17.70;15.97;;;;;;;;;;5054026;28;20672;-75
2023/04/21 04:10:45;;;;;;;17.87;15.90;;;;;;;;;;5054103;28;20206;-75
2023/04/21 04:13:12;;;;;;;17.97;16.17;;;;;;;;;;5054337;28;20233;-75
2023/04/21 04:15:38;;;;;;;17.63;15.73;;;;;;;;;;5054263;28;20209;-75
2023/04/21 04:18:04;;;;;;;17.87;15.97;;;;;;;;;;5054659;28;20209;-75
2023/04/21 04:20:30;;;;;;;17.37;15.57;;;;;;;;;;5054004;28;20212;-75
2023/04/21 04:22:57;;;;;;;18.70;16.70;;;;;;;;;;5053695;28;20229;-75
2023/04/21 04:25:23;;;;;;;17.20;15.43;;;;;;;;;;5053935;28;20216;-75
2023/04/21 04:27:49;;;;;;;17.40;15.40;;;;;;;;;;5053932;28;20227;-75
2023/04/21 04:30:16;;;;;;;18.60;16.07;;;;;;;;;;5053723;28;20205;-75
2023/04/21 04:32:42;;;;;;;18.50;16.57;;;;;;;;;;5053877;28;20241;-76
2023/04/21 04:35:09;;;;;;;17.67;15.87;;;;;;;;;;5053586;28;20216;-75
2023/04/21 04:37:36;;;;;;;17.90;16.00;;;;;;;;;;5053347;28;20221;-75
2023/04/21 04:40:04;;;;;;;18.23;15.30;;;;;;;;;;5053588;28;20224;-75
2023/04/21 04:42:31;;;;;;;17.27;15.57;;;;;;;;;;5053504;28;20225;-75
2023/04/21 04:44:58;;;;;;;16.97;15.23;;;;;;;;;;5053530;28;20204;-75
2023/04/21 04:47:24;;;;;;;17.93;15.80;;;;;;;;;;5052671;28;20735;-76
2023/04/21 04:49:51;;;;;;;16.73;15.03;;;;;;;;;;5053472;28;20209;-75
2023/04/21 04:52:17;;;;;;;17.70;14.80;;;;;;;;;;5053164;28;20216;-74
2023/04/21 04:54:43;;;;;;;16.37;14.67;;;;;;;;;;5053437;28;20205;-75
2023/04/21 04:57:09;;;;;;;16.83;14.90;;;;;;;;;;5053442;28;20240;-75
2023/04/21 04:59:36;;;;;;;16.30;14.67;;;;;;;;;;5053406;28;20245;-75
2023/04/21 05:02:02;;;;;;;17.57;15.67;;;;;;;;;;5052887;28;20668;-75
2023/04/21 05:04:29;;;;;;;18.47;16.53;;;;;;;;;;5053211;28;20259;-75
2023/04/21 05:06:55;;;;;;;19.40;17.30;;;;;;;;;;5053302;28;20197;-75
2023/04/21 05:09:21;;;;;;;19.10;17.07;;;;;;;;;;5053450;28;20209;-75
2023/04/21 05:11:47;;;;;;;19.97;17.87;;;;;;;;;;5053118;28;20212;-75
2023/04/21 05:14:14;;;;;;;20.53;18.33;;;;;;;;;;5052626;28;20599;-75
2023/04/21 05:16:40;;;;;;;21.63;19.30;;;;;;;;;;5053058;28;20590;-75
2023/04/21 05:19:06;;;;;;;21.80;18.80;;;;;;;;;;5053028;28;20205;-75
2023/04/21 05:21:33;;;;;;;19.50;17.40;;;;;;;;;;5053284;28;20205;-75
2023/04/21 05:23:59;;;;;;;18.93;16.57;;;;;;;;;;5053111;28;20228;-74
2023/04/21 05:26:26;;;;;;;22.50;19.67;;;;;;;;;;5052873;28;20197;-75
2023/04/21 05:28:56;;;;;;;23.57;19.50;;;;;;;;;;5053076;28;20209;-75
2023/04/21 05:31:22;;;;;;;20.70;18.50;;;;;;;;;;5053072;28;20201;-75
2023/04/21 05:33:49;;;;;;;21.33;19.13;;;;;;;;;;5052795;28;20221;-75
2023/04/21 05:36:15;;;;;;;21.63;19.33;;;;;;;;;;5052903;28;20224;-75
2023/04/21 05:38:41;;;;;;;20.40;18.23;;;;;;;;;;5052900;28;20209;-75
2023/04/21 05:41:08;;;;;;;22.00;19.37;;;;;;;;;;5052397;28;20205;-75
2023/04/21 05:43:34;;;;;;;23.80;20.67;;;;;;;;;;5052378;28;20236;-75
2023/04/21 05:46:08;;;;;;;26.00;22.27;;;;;;;;;;5052415;28;20687;-75
2023/04/21 05:48:34;;;;;;;25.63;22.60;;;;;;;;;;5052711;28;20193;-75
2023/04/21 05:51:10;;;;;;;24.83;22.13;;;;;;;;;;5052294;28;20263;-75
2023/04/21 05:53:37;;;;;;;24.73;21.77;;;;;;;;;;5052592;28;20278;-75
2023/04/21 05:56:04;;;;;;;25.57;22.00;;;;;;;;;;5052679;28;20205;-75
2023/04/21 05:58:31;;;;;;;25.70;22.47;;;;;;;;;;5054006;28;20216;-74
2023/04/21 06:00:57;;;;;;;26.40;22.33;;;;;;;;;;5057806;28;20213;-75
2023/04/21 06:03:23;;;;;;;24.03;21.40;;;;;;;;;;5056398;28;20229;-75
2023/04/21 06:05:53;;;;;;;25.47;21.80;;;;;;;;;;5056985;28;20220;-75
2023/04/21 06:08:19;;;;;;;25.27;22.27;;;;;;;;;;5057361;28;20213;-75
2023/04/21 06:10:46;;;;;;;22.97;20.47;;;;;;;;;;5056493;28;20201;-75
2023/04/21 06:13:12;;;;;;;23.73;20.83;;;;;;;;;;5056262;28;20237;-75
2023/04/21 06:15:38;;;;;;;24.80;22.07;;;;;;;;;;5056478;28;20212;-75
2023/04/21 06:18:04;;;;;;;25.00;22.30;;;;;;;;;;5056193;28;20229;-75
2023/04/21 06:20:31;;;;;;;24.20;21.63;;;;;;;;;;5055995;28;20209;-75
2023/04/21 06:22:57;;;;;;;23.73;21.10;;;;;;;;;;5056030;28;20711;-75
2023/04/21 06:25:23;;;;;;;22.43;19.63;;;;;;;;;;5056321;28;20209;-75
2023/04/21 06:27:49;;;;;;;21.77;19.57;;;;;;;;;;5056338;28;20202;-75
2023/04/21 06:30:16;;;;;;;21.10;18.80;;;;;;;;;;5056093;28;20209;-75
2023/04/21 06:32:44;;;;;;;22.93;20.53;;;;;;;;;;5072080;28;20244;-77
2023/04/21 06:35:13;;;;;;;21.83;19.53;;;;;;;;;;5075949;28;20287;-77
2023/04/21 06:37:39;;;;;;;22.47;19.77;;;;;;;;;;5076446;28;20229;-79
2023/04/21 06:40:06;;;;;;;22.97;19.70;;;;;;;;;;5076098;28;20204;-79
2023/04/21 06:42:32;;;;;;;21.43;19.23;;;;;;;;;;5075592;28;20225;-79
2023/04/21 06:44:58;;;;;;;21.30;19.13;;;;;;;;;;5075608;28;20675;-79
2023/04/21 06:47:25;;;;;;;21.50;19.20;;;;;;;;;;5076165;28;20204;-78
2023/04/21 06:49:51;;;;;;;23.60;18.47;;;;;;;;;;5075624;28;20250;-77
2023/04/21 06:52:17;;;;;;;22.43;19.43;;;;;;;;;;5075473;28;20205;-77
2023/04/21 06:54:43;;;;;;;21.73;19.17;;;;;;;;;;5075825;28;20211;-77
2023/04/21 06:57:10;;;;;;;22.17;19.60;;;;;;;;;;5075436;28;20332;-78
2023/04/21 06:59:36;;;;;;;21.40;19.20;;;;;;;;;;5075491;28;20300;-78
2023/04/21 07:02:02;;;;;;;20.13;18.00;;;;;;;;;;5075631;28;20281;-75
2023/04/21 07:04:30;;;;;;;21.63;19.33;;;;;;;;;;5075678;28;20206;-78
2023/04/21 07:06:57;;;;;;;21.40;19.10;;;;;;;;;;5075830;28;20197;-77
2023/04/21 07:09:23;;;;;;;22.90;20.30;;;;;;;;;;5075523;28;20699;-79
2023/04/21 07:11:49;;;;;;;22.83;20.00;;;;;;;;;;5074813;28;20211;-78
2023/04/21 07:14:16;;;;;;;22.23;19.80;;;;;;;;;;5075215;28;20235;-78
2023/04/21 07:16:42;;;;;;;23.40;19.63;;;;;;;;;;5075430;28;20235;-78
2023/04/21 07:19:08;;;;;;;21.93;19.33;;;;;;;;;;5075457;28;20218;-77
2023/04/21 07:21:35;;;;;;;21.33;19.07;;;;;;;;;;5075506;28;20205;-78
2023/04/21 07:24:01;;;;;;;21.10;18.80;;;;;;;;;;5075221;28;20227;-78
2023/04/21 07:26:28;;;;;;;20.27;18.27;;;;;;;;;;5076207;28;20220;-78
2023/04/21 07:28:54;;;;;;;17.97;16.13;;;;;;;;;;5074590;28;20209;-78
2023/04/21 07:31:20;;;;;;;17.90;16.10;;;;;;;;;;5075042;28;20208;-78
2023/04/21 07:33:47;;;;;;;18.73;16.27;;;;;;;;;;5074813;28;20726;-79
2023/04/21 07:36:14;;;;;;;18.07;16.27;;;;;;;;;;5074559;28;20206;-79
2023/04/21 07:38:42;;;;;;;16.73;15.10;;;;;;;;;;5075036;28;20233;-79
2023/04/21 07:41:08;;;;;;;16.57;14.93;;;;;;;;;;5074640;28;20566;-78
2023/04/21 07:43:34;;;;;;;15.83;14.23;;;;;;;;;;5074582;28;20585;-77
2023/04/21 07:46:01;;;;;;;15.63;14.07;;;;;;;;;;5074746;28;20227;-78
2023/04/21 07:48:27;;;;;;;15.43;13.83;;;;;;;;;;5074943;28;20204;-78
2023/04/21 07:50:53;;;;;;;15.63;14.13;;;;;;;;;;5075062;28;20204;-78
2023/04/21 07:53:20;;;;;;;15.83;14.13;;;;;;;;;;5074325;28;20746;-79
2023/04/21 07:55:46;;;;;;;16.00;14.30;;;;;;;;;;5074445;28;20686;-78
2023/04/21 07:58:12;;;;;;;16.30;13.60;;;;;;;;;;5074341;28;20231;-78
2023/04/21 08:00:39;;;;;;;13.77;12.47;;;;;;;;;;5074615;28;20204;-77
2023/04/21 08:03:05;;;;;;;16.20;13.90;;;;;;;;;;5074336;28;20224;-78
2023/04/21 08:05:31;;;;;;;16.57;13.90;;;;;;;;;;5074495;28;20200;-77
2023/04/21 08:07:58;;;;;;;14.83;13.43;;;;;;;;;;5074160;28;20250;-77
2023/04/21 08:10:24;;;;;;;14.10;12.80;;;;;;;;;;5074150;28;20211;-77
2023/04/21 08:12:50;;;;;;;14.47;13.07;;;;;;;;;;5074169;28;20240;-76
2023/04/21 08:15:16;;;;;;;14.20;12.80;;;;;;;;;;5074357;28;20204;-78
2023/04/21 08:17:43;;;;;;;13.93;12.63;;;;;;;;;;5073426;28;20223;-77
2023/04/21 08:20:10;;;;;;;13.10;11.83;;;;;;;;;;5074287;28;20207;-78
2023/04/21 08:22:36;;;;;;;12.47;11.37;;;;;;;;;;5073280;28;20233;-76
2023/04/21 08:25:03;;;;;;;11.97;10.77;;;;;;;;;;5074221;28;20212;-80
2023/04/21 08:27:29;;;;;;;12.37;11.10;;;;;;;;;;5074182;28;20201;-79
2023/04/21 08:29:56;;;;;;;11.53;10.53;;;;;;;;;;5074488;28;20212;-78
2023/04/21 08:32:23;;;;;;;11.00;9.97;;;;;;;;;;5073879;28;20204;-76
2023/04/21 08:34:50;;;;;;;10.30;9.30;;;;;;;;;;5073643;28;20667;-77
2023/04/21 08:37:17;;;;;;;10.90;9.90;;;;;;;;;;5073847;28;20236;-79
2023/04/21 08:39:43;;;;;;;10.57;9.57;;;;;;;;;;5073877;28;20212;-79
2023/04/21 08:42:09;;;;;;;11.43;10.33;;;;;;;;;;5074281;28;20213;-79
2023/04/21 08:44:35;;;;;;;11.37;10.27;;;;;;;;;;5073701;28;20248;-79
2023/04/21 08:47:03;;;;;;;12.57;11.37;;;;;;;;;;5074122;28;20200;-79
2023/04/21 08:49:30;;;;;;;11.83;10.57;;;;;;;;;;5073839;28;20207;-78
2023/04/21 08:51:56;;;;;;;12.10;10.90;;;;;;;;;;5073363;28;20204;-78
2023/04/21 08:54:22;;;;;;;12.73;10.73;;;;;;;;;;5073438;28;20229;-81
2023/04/21 08:56:49;;;;;;;12.47;10.67;;;;;;;;;;5073086;28;20619;-81
2023/04/21 08:59:15;;;;;;;9.83;8.83;;;;;;;;;;5074259;28;20204;-80
2023/04/21 09:02:08;;;;;;;8.40;7.60;;;;;;;;;;5073585;28;20208;-81
2023/04/21 09:04:35;;;;;;;6.53;5.93;;;;;;;;;;5070711;28;20291;-79
2023/04/21 09:07:01;;;;;;;8.23;7.43;;;;;;;;;;5073601;28;20292;-79
2023/04/21 09:09:27;;;;;;;8.20;7.40;;;;;;;;;;5073081;28;20239;-80
2023/04/21 09:11:58;;;;;;;9.17;8.27;;;;;;;;;;5073336;28;20210;-78
2023/04/21 09:14:34;;;;;;;8.90;8.10;;;;;;;;;;5073246;28;20244;-77
2023/04/21 09:17:01;;;;;;;8.90;7.80;;;;;;;;;;5073356;28;20201;-79
2023/04/21 09:19:28;;;;;;;9.20;8.30;;;;;;;;;;5074022;28;20215;-79
2023/04/21 09:21:54;;;;;;;7.87;7.07;;;;;;;;;;5073287;28;20211;-80
2023/04/21 09:24:20;;;;;;;11.03;10.03;;;;;;;;;;5073289;28;20402;-79
2023/04/21 09:26:50;;;;;;;9.53;8.57;;;;;;;;;;5073198;28;20286;-78
2023/04/21 09:29:16;;;;;;;9.37;8.47;;;;;;;;;;5072919;28;20217;-79
2023/04/21 09:31:44;;;;;;;10.80;9.80;;;;;;;;;;5073393;28;20570;-80
2023/04/21 09:34:20;;;;;;;9.73;8.83;;;;;;;;;;5076903;28;20283;-78
2023/04/21 09:36:46;;;;;;;9.37;8.47;;;;;;;;;;5080171;28;20204;-79
2023/04/21 09:39:13;;;;;;;10.23;9.23;;;;;;;;;;5079596;28;20238;-79
2023/04/21 09:41:39;;;;;;;9.07;8.17;;;;;;;;;;5079861;28;20291;-78
2023/04/21 09:44:05;;;;;;;8.47;7.67;;;;;;;;;;5079700;28;20575;-78
2023/04/21 09:46:33;;;;;;;8.40;7.60;;;;;;;;;;5079855;28;20207;-80
2023/04/21 09:49:00;;;;;;;9.60;8.70;;;;;;;;;;5079711;28;20198;-78
2023/04/21 09:51:26;;;;;;;9.67;8.03;;;;;;;;;;5079741;28;20295;-78
2023/04/21 09:53:58;;;;;;;8.70;6.50;;;;;;;;;;5079282;28;20734;-78
2023/04/21 09:56:25;;;;;;;7.90;7.00;;;;;;;;;;5079749;28;20214;-79
2023/04/21 09:58:57;;;;;;;7.40;6.60;;;;;;;;;;5079390;28;20230;-78
2023/04/21 10:01:26;;;;;;;7.67;6.97;;;;;;;;;;5080056;28;20215;-79
2023/04/21 10:03:53;;;;;;;7.17;6.43;;;;;;;;;;5078483;28;20224;-78
2023/04/21 10:06:19;;;;;;;8.27;7.57;;;;;;;;;;5079693;28;20212;-79
2023/04/21 10:08:46;;;;;;;8.63;7.83;;;;;;;;;;5079887;28;20208;-79
2023/04/21 10:11:13;;;;;;;8.13;7.33;;;;;;;;;;5079436;28;20200;-78
2023/04/21 10:13:40;;;;;;;9.10;8.23;;;;;;;;;;5079280;28;20239;-77
2023/04/21 10:16:08;;;;;;;8.97;8.17;;;;;;;;;;5079172;28;20750;-75
2023/04/21 10:18:38;;;;;;;9.13;8.23;;;;;;;;;;5079418;28;20250;-75
2023/04/21 10:21:06;;;;;;;8.60;7.80;;;;;;;;;;5078887;28;20208;-76
2023/04/21 10:23:36;;;;;;;9.37;8.57;;;;;;;;;;5078991;28;20228;-78
2023/04/21 10:26:05;;;;;;;10.10;9.20;;;;;;;;;;5079377;28;20208;-75
2023/04/21 10:28:48;;;;;;;9.53;8.70;;;;;;;;;;5079322;28;20204;-76
2023/04/21 10:31:25;;;;;;;9.97;9.10;;;;;;;;;;5079244;28;20204;-74
2023/04/21 10:34:07;;;;;;;9.70;8.80;;;;;;;;;;5079302;28;20231;-76
2023/04/21 10:36:42;;;;;;;10.00;9.00;;;;;;;;;;5079104;28;20204;-75
2023/04/21 10:39:11;;;;;;;9.80;8.90;;;;;;;;;;5078924;28;20714;-79
2023/04/21 10:41:37;;;;;;;9.10;8.20;;;;;;;;;;5078764;28;20212;-79
2023/04/21 10:44:10;;;;;;;8.57;7.73;;;;;;;;;;5078855;28;20224;-75
2023/04/21 10:46:38;;;;;;;10.10;8.90;;;;;;;;;;5074336;28;20208;-76
2023/04/21 10:49:21;;;;;;;9.23;8.43;;;;;;;;;;5075557;28;20201;-75
2023/04/21 10:51:57;;;;;;;8.17;7.47;;;;;;;;;;5075134;28;20636;-74
2023/04/21 10:54:24;;;;;;;9.33;8.53;;;;;;;;;;5075686;28;20239;-73
2023/04/21 10:56:51;;;;;;;8.57;7.77;;;;;;;;;;5075805;28;20284;-73
2023/04/21 10:59:18;;;;;;;8.23;7.53;;;;;;;;;;5075340;28;20239;-75
2023/04/21 11:01:45;;;;;;;8.80;7.70;;;;;;;;;;5074585;28;20248;-76
2023/04/21 11:04:14;;;;;;;7.40;6.80;;;;;;;;;;5073777;28;20311;-74
2023/04/21 11:06:41;;;;;;;8.67;7.87;;;;;;;;;;5074308;28;20579;-74
2023/04/21 11:09:08;;;;;;;8.23;7.53;;;;;;;;;;5075339;28;20201;-74
2023/04/21 11:11:35;;;;;;;8.17;7.47;;;;;;;;;;5074175;28;20205;-74
2023/04/21 11:14:01;;;;;;;7.93;7.23;;;;;;;;;;5074644;28;20298;-74
2023/04/21 11:16:28;;;;;;;6.83;6.23;;;;;;;;;;5075083;28;20209;-74
2023/04/21 11:18:56;;;;;;;7.70;6.93;;;;;;;;;;5074724;28;20248;-74
2023/04/21 11:21:23;;;;;;;9.03;8.17;;;;;;;;;;5074546;28;20571;-73
2023/04/21 11:23:49;;;;;;;8.20;7.47;;;;;;;;;;5074478;28;20233;-71
2023/04/21 11:26:16;;;;;;;7.67;6.97;;;;;;;;;;5074525;28;20238;-73
2023/04/21 11:28:42;;;;;;;8.97;8.10;;;;;;;;;;5074996;28;20659;-73
2023/04/21 11:31:09;;;;;;;7.23;6.63;;;;;;;;;;5074738;28;20686;-73
2023/04/21 11:33:36;;;;;;;7.17;6.10;;;;;;;;;;5074861;28;20220;-73
2023/04/21 11:36:08;;;;;;;6.60;6.00;;;;;;;;;;5075160;28;20208;-73
2023/04/21 11:38:41;;;;;;;7.23;6.53;;;;;;;;;;5074947;28;20236;-73
2023/04/21 11:41:08;;;;;;;8.70;6.40;;;;;;;;;;5075004;28;20204;-74
2023/04/21 11:43:34;;;;;;;7.77;7.07;;;;;;;;;;5074498;28;20336;-74
2023/04/21 11:46:13;;;;;;;7.77;7.07;;;;;;;;;;5073995;28;20571;-73
2023/04/21 11:48:40;;;;;;;8.20;7.50;;;;;;;;;;5075118;28;20564;-74
2023/04/21 11:51:06;;;;;;;7.70;7.00;;;;;;;;;;5074751;28;20209;-73
2023/04/21 11:53:32;;;;;;;6.87;6.17;;;;;;;;;;5074125;28;20228;-74
2023/04/21 11:55:59;;;;;;;7.03;6.43;;;;;;;;;;5074460;28;20227;-73
2023/04/21 11:58:26;;;;;;;7.17;6.47;;;;;;;;;;5074478;28;20232;-73
2023/04/21 12:00:52;;;;;;;7.97;6.93;;;;;;;;;;5074625;28;20223;-74
2023/04/21 12:03:19;;;;;;;6.63;6.03;;;;;;;;;;5074550;28;20228;-73
2023/04/21 12:05:45;;;;;;;8.17;7.47;;;;;;;;;;5074371;28;20212;-74
2023/04/21 12:08:15;;;;;;;6.70;6.10;;;;;;;;;;5074320;28;20213;-74
2023/04/21 12:10:45;;;;;;;7.03;6.43;;;;;;;;;;5074758;28;20291;-76
2023/04/21 12:13:11;;;;;;;7.03;6.32;;;;;;;;;;5073893;28;20988;-74
2023/04/21 12:15:38;;;;;;;6.70;6.10;;;;;;;;;;5074289;28;20652;-74
2023/04/21 12:18:12;;;;;;;6.60;6.00;;;;;;;;;;5073435;28;20229;-74
2023/04/21 12:20:38;;;;;;;8.87;8.07;;;;;;;;;;5074082;28;20193;-75
2023/04/21 12:23:04;;;;;;;6.63;6.03;;;;;;;;;;5074328;28;20232;-75
2023/04/21 12:25:30;;;;;;;5.63;5.13;;;;;;;;;;5074524;28;20204;-75
2023/04/21 12:28:00;;;;;;;5.77;5.27;;;;;;;;;;5074276;28;20208;-75
2023/04/21 12:30:26;;;;;;;5.50;5.00;;;;;;;;;;5073267;28;20227;-75
2023/04/21 12:32:54;;;;;;;5.93;5.43;;;;;;;;;;5074207;28;20238;-74
2023/04/21 12:35:20;;;;;;;5.80;5.30;;;;;;;;;;5073615;28;20215;-75
2023/04/21 12:37:47;;;;;;;5.40;4.87;;;;;;;;;;5073647;28;20266;-75
2023/04/21 12:40:13;;;;;;;6.30;5.70;;;;;;;;;;5073654;28;20208;-75
2023/04/21 12:42:39;;;;;;;5.10;4.70;;;;;;;;;;5073528;28;20300;-75
2023/04/21 12:45:06;;;;;;;5.00;4.50;;;;;;;;;;5073809;28;20589;-75
2023/04/21 12:47:32;;;;;;;5.03;4.50;;;;;;;;;;5074243;28;20208;-74
2023/04/21 12:49:59;;;;;;;5.00;4.53;;;;;;;;;;5073169;28;20212;-75
2023/04/21 12:52:25;;;;;;;4.17;3.87;;;;;;;;;;5073324;28;20231;-74
2023/04/21 12:54:52;;;;;;;4.70;4.30;;;;;;;;;;5073156;28;20806;-74
2023/04/21 12:57:18;;;;;;;5.03;4.50;;;;;;;;;;5073592;28;20210;-75
2023/04/21 12:59:44;;;;;;;4.30;3.97;;;;;;;;;;5073198;28;20323;-74
2023/04/21 13:02:10;;;;;;;4.50;4.20;;;;;;;;;;5073223;28;20216;-74
2023/04/21 13:04:37;;;;;;;4.47;4.07;;;;;;;;;;5073248;28;20211;-74
2023/04/21 13:07:04;;;;;;;4.60;4.20;;;;;;;;;;5073244;28;20204;-74
2023/04/21 13:09:30;;;;;;;4.67;4.27;;;;;;;;;;5073555;28;20216;-74
2023/04/21 13:11:56;;;;;;;4.43;4.07;;;;;;;;;;5073610;28;20204;-74
2023/04/21 13:14:23;;;;;;;3.90;3.60;;;;;;;;;;5072537;28;20233;-74
2023/04/21 13:16:49;;;;;;;3.80;3.50;;;;;;;;;;5072649;28;20207;-73
2023/04/21 13:19:15;;;;;;;4.50;4.20;;;;;;;;;;5072669;28;20228;-74
2023/04/21 13:21:41;;;;;;;4.13;3.83;;;;;;;;;;5073097;28;20240;-75
2023/04/21 13:24:08;;;;;;;4.07;3.77;;;;;;;;;;5072833;28;20220;-74
2023/04/21 13:26:34;;;;;;;3.93;3.63;;;;;;;;;;5072733;28;20215;-74
2023/04/21 13:29:02;;;;;;;4.20;3.37;;;;;;;;;;5073083;28;20254;-74
2023/04/21 13:31:28;;;;;;;3.53;3.30;;;;;;;;;;5072799;28;20211;-74
2023/04/21 13:33:55;;;;;;;4.00;3.50;;;;;;;;;;5072296;28;20258;-74
2023/04/21 13:36:21;;;;;;;3.43;3.20;;;;;;;;;;5072737;28;20215;-74
2023/04/21 13:38:49;;;;;;;4.60;4.20;;;;;;;;;;5072705;28;20278;-75
2023/04/21 13:41:16;;;;;;;4.17;3.77;;;;;;;;;;5073058;28;20204;-73
2023/04/21 13:43:42;;;;;;;5.03;4.10;;;;;;;;;;5073202;28;20553;-73
2023/04/21 13:46:08;;;;;;;3.80;3.50;;;;;;;;;;5072781;28;20206;-74
2023/04/21 13:48:35;;;;;;;5.47;3.70;;;;;;;;;;5072866;28;20197;-74
2023/04/21 13:51:01;;;;;;;3.90;3.60;;;;;;;;;;5072201;28;20557;-75
2023/04/21 13:53:28;;;;;;;3.40;3.10;;;;;;;;;;5072094;28;20228;-75
2023/04/21 13:55:55;;;;;;;3.63;3.37;;;;;;;;;;5071682;28;20200;-75
2023/04/21 13:58:22;;;;;;;3.40;3.10;;;;;;;;;;5071466;28;20220;-75
2023/04/21 14:00:48;;;;;;;3.43;3.17;;;;;;;;;;5070376;28;20618;-76
2023/04/21 14:03:15;;;;;;;3.00;2.80;;;;;;;;;;5071060;28;20320;-76
2023/04/21 14:05:41;;;;;;;2.97;2.70;;;;;;;;;;5072139;28;20575;-75
2023/04/21 14:08:07;;;;;;;3.10;2.80;;;;;;;;;;5072590;28;20227;-75
2023/04/21 14:10:34;;;;;;;3.10;2.80;;;;;;;;;;5072111;28;20209;-75
2023/04/21 14:13:00;;;;;;;3.30;2.77;;;;;;;;;;5072233;28;20576;-76
2023/04/21 14:15:26;;;;;;;2.90;2.70;;;;;;;;;;5072559;28;20300;-75
2023/04/21 14:17:53;;;;;;;3.57;2.97;;;;;;;;;;5072510;28;20715;-75
2023/04/21 14:20:19;;;;;;;3.50;2.60;;;;;;;;;;5072978;28;20227;-75
2023/04/21 14:22:45;;;;;;;2.70;2.50;;;;;;;;;;5075911;28;20235;-75
2023/04/21 14:25:11;;;;;;;5.13;2.90;;;;;;;;;;5076467;28;20224;-75